createdAt,value
2018-04-17T07:47:56.031Z,99.99
2018-04-17T07:48:08.620Z,99.99
2018-04-17T07:48:21.262Z,99.99
2018-04-17T07:48:33.873Z,99.99
2018-04-17T07:48:46.542Z,99.99
2018-04-17T07:48:59.163Z,99.99
2018-04-17T07:49:11.893Z,99.99
2018-04-17T07:49:24.437Z,99.99
2018-04-17T07:49:37.035Z,99.99
2018-04-17T07:49:49.653Z,99.99
2018-04-17T07:50:02.267Z,99.99
2018-04-17T07:50:14.866Z,99.99
2018-04-17T07:50:27.485Z,99.99
2018-04-17T07:50:40.104Z,99.99
2018-04-17T07:50:52.718Z,99.99
2018-04-17T07:51:05.317Z,99.99
2018-04-17T07:51:17.910Z,99.99
2018-04-17T07:51:30.520Z,99.99
2018-04-17T07:51:43.120Z,99.99
2018-04-17T07:51:55.710Z,99.99
2018-04-17T07:52:08.307Z,99.99
2018-04-17T07:52:20.900Z,99.99
2018-04-17T07:52:33.500Z,99.99
2018-04-17T07:52:46.111Z,99.99
2018-04-17T07:52:58.703Z,99.99
2018-04-17T07:53:11.293Z,99.99
2018-04-17T07:53:23.886Z,99.99
2018-04-17T07:53:36.478Z,99.99
2018-04-17T07:53:49.083Z,99.99
2018-04-17T07:54:01.712Z,99.99
2018-04-17T07:54:14.327Z,99.99
2018-04-17T07:54:26.921Z,99.99
2018-04-17T07:54:39.517Z,99.99
2018-04-17T07:54:52.110Z,99.99
2018-04-17T07:55:04.703Z,99.99
2018-04-17T07:55:17.307Z,99.99
2018-04-17T07:55:29.895Z,99.99
2018-04-17T07:55:42.547Z,99.99
2018-04-17T07:55:55.133Z,99.99
2018-04-17T07:56:07.729Z,99.99
2018-04-17T07:56:20.327Z,99.99
2018-04-17T07:56:32.926Z,99.99
2018-04-17T07:56:45.537Z,99.99
2018-04-17T07:56:58.136Z,99.99
2018-04-17T07:57:10.731Z,99.99
2018-04-17T07:57:23.328Z,99.99
2018-04-17T07:57:35.955Z,99.99
2018-04-17T07:57:48.555Z,99.99
2018-04-17T07:58:01.157Z,99.99
2018-04-17T07:58:13.748Z,99.99
2018-04-17T07:58:26.404Z,99.99
2018-04-17T07:58:38.992Z,99.99
2018-04-17T07:58:51.588Z,99.99
2018-04-17T07:59:04.191Z,99.99
2018-04-17T07:59:16.805Z,99.99
2018-04-17T07:59:29.400Z,99.99
2018-04-17T07:59:42.000Z,99.99
2018-04-17T07:59:54.623Z,99.99
2018-04-17T08:00:07.236Z,99.99
2018-04-17T08:00:19.838Z,99.99
2018-04-17T08:00:32.480Z,99.99
2018-04-17T08:00:45.075Z,99.99
2018-04-17T08:00:57.675Z,99.99
2018-04-17T08:01:10.269Z,99.99
2018-04-17T08:01:22.864Z,99.99
2018-04-17T08:01:35.463Z,99.99
2018-04-17T08:01:48.061Z,99.99
2018-04-17T08:02:00.680Z,99.99
2018-04-17T08:02:13.271Z,99.99
2018-04-17T08:02:25.878Z,99.99
2018-04-17T08:02:38.503Z,99.99
2018-04-17T08:02:51.126Z,99.99
2018-04-17T08:03:03.716Z,99.99
2018-04-17T08:03:16.313Z,99.99
2018-04-17T08:03:28.927Z,99.99
2018-04-17T08:03:41.525Z,99.99
2018-04-17T08:03:54.118Z,99.99
2018-04-17T08:04:06.717Z,99.99
2018-04-17T08:04:19.311Z,99.99
2018-04-17T08:04:31.903Z,99.99
2018-04-17T08:04:44.503Z,99.99
2018-04-17T08:04:57.122Z,99.99
2018-04-17T08:05:09.738Z,99.99
2018-04-17T08:05:22.339Z,99.99
2018-04-17T08:05:34.953Z,99.99
2018-04-17T08:05:47.553Z,99.99
2018-04-17T08:06:00.173Z,99.99
2018-04-17T08:06:12.764Z,99.99
2018-04-17T08:06:25.362Z,99.99
2018-04-17T08:06:37.957Z,99.99
2018-04-17T08:06:50.564Z,99.99
2018-04-17T08:07:03.154Z,99.99
2018-04-17T08:07:15.769Z,99.99
2018-04-17T08:07:28.449Z,99.99
2018-04-17T08:07:41.017Z,99.99
2018-04-17T08:07:53.635Z,99.99
2018-04-17T08:08:06.256Z,99.99
2018-04-17T08:08:18.877Z,99.99
2018-04-17T08:08:31.473Z,99.99
2018-04-17T08:08:44.087Z,99.99
2018-04-17T08:08:56.688Z,99.99
2018-04-17T08:09:09.303Z,99.99
2018-04-17T08:09:22.029Z,99.99
2018-04-17T08:09:34.639Z,99.99
2018-04-17T08:09:47.238Z,99.99
2018-04-17T08:09:59.866Z,99.99
2018-04-17T08:10:12.499Z,99.99
2018-04-17T08:10:25.118Z,99.99
2018-04-17T08:10:37.734Z,99.99
2018-04-17T08:10:50.329Z,99.99
2018-04-17T08:11:02.934Z,99.99
2018-04-17T08:11:15.546Z,99.99
2018-04-17T08:11:28.148Z,99.99
2018-04-17T08:11:40.746Z,99.99
2018-04-17T08:11:53.398Z,99.99
2018-04-17T08:12:05.986Z,99.99
2018-04-17T08:12:18.585Z,99.99
2018-04-17T08:12:31.206Z,99.99
2018-04-17T08:12:43.807Z,99.99
2018-04-17T08:12:56.401Z,99.99
2018-04-17T08:13:09.012Z,99.99
2018-04-17T08:13:21.631Z,99.99
2018-04-17T08:13:34.253Z,99.99
2018-04-17T08:13:46.872Z,99.99
2018-04-17T08:13:59.545Z,99.99
2018-04-17T08:14:12.134Z,99.99
2018-04-17T08:14:24.740Z,99.99
2018-04-17T08:14:37.355Z,99.99
2018-04-17T08:14:49.958Z,99.99
2018-04-17T08:15:02.593Z,99.99
2018-04-17T08:15:15.224Z,99.99
2018-04-17T08:15:27.827Z,99.99
2018-04-17T08:15:40.445Z,99.99
2018-04-17T08:15:53.038Z,99.99
2018-04-17T08:16:05.638Z,99.99
2018-04-17T08:16:18.262Z,99.99
2018-04-17T08:16:30.900Z,99.99
2018-04-17T08:16:43.502Z,99.99
2018-04-17T08:16:56.114Z,99.99
2018-04-17T08:17:08.713Z,99.99
2018-04-17T08:17:21.342Z,99.99
2018-04-17T08:17:33.988Z,99.99
2018-04-17T08:17:46.574Z,99.99
2018-04-17T08:17:59.160Z,99.99
2018-04-17T08:18:11.802Z,99.99
2018-04-17T08:18:24.405Z,99.99
2018-04-17T08:18:37.021Z,99.99
2018-04-17T08:18:49.617Z,99.99
2018-04-17T08:19:02.216Z,99.99
2018-04-17T08:19:14.828Z,99.99
2018-04-17T08:19:27.446Z,99.99
2018-04-17T08:19:40.067Z,99.99
2018-04-17T08:19:52.709Z,99.99
2018-04-17T08:20:05.327Z,99.99
2018-04-17T08:20:17.926Z,99.99
2018-04-17T08:20:30.520Z,99.99
2018-04-17T08:20:43.128Z,99.99
2018-04-17T08:20:55.745Z,99.99
2018-04-17T08:21:08.365Z,99.99
2018-04-17T08:21:20.996Z,99.99
2018-04-17T08:21:33.599Z,99.99
2018-04-17T08:21:46.169Z,99.99
2018-04-17T08:21:58.813Z,99.99
2018-04-17T08:22:11.407Z,99.99
2018-04-17T08:22:24.026Z,99.91
2018-04-17T08:22:36.626Z,99.48
2018-04-17T08:22:49.230Z,98.57
2018-04-17T08:23:01.846Z,98.67
2018-04-17T08:23:14.450Z,98.28
2018-04-17T08:23:27.102Z,98.19
2018-04-17T08:23:39.700Z,98.24
2018-04-17T08:23:52.308Z,98.10
2018-04-17T08:24:04.918Z,98.33
2018-04-17T08:24:17.497Z,98.77
2018-04-17T08:24:30.098Z,98.57
2018-04-17T08:24:42.709Z,98.19
2018-04-17T08:24:55.308Z,98.19
2018-04-17T08:25:08.279Z,97.14
2018-04-17T08:25:20.852Z,97.23
2018-04-17T08:25:33.444Z,97.18
2018-04-17T08:25:46.046Z,97.42
2018-04-17T08:25:58.728Z,96.75
2018-04-17T08:26:11.320Z,96.08
2018-04-17T08:26:23.948Z,95.41
2018-04-17T08:26:36.540Z,95.03
2018-04-17T08:26:49.138Z,94.93
2018-04-17T08:27:01.737Z,94.45
2018-04-17T08:27:14.335Z,94.45
2018-04-17T08:27:26.927Z,94.54
2018-04-17T08:27:39.529Z,94.54
2018-04-17T08:27:52.159Z,94.45
2018-04-17T08:28:04.761Z,94.35
2018-04-17T08:28:17.358Z,93.78
2018-04-17T08:28:29.956Z,92.34
2018-04-17T08:28:42.576Z,92.72
2018-04-17T08:28:55.173Z,92.63
2018-04-17T08:29:07.772Z,92.91
2018-04-17T08:29:20.431Z,92.05
2018-04-17T08:29:33.014Z,91.28
2018-04-17T08:29:45.653Z,90.90
2018-04-17T08:29:58.217Z,90.81
2018-04-17T08:30:10.809Z,90.76
2018-04-17T08:30:23.411Z,90.86
2018-04-17T08:30:36.035Z,90.67
2018-04-17T08:30:48.624Z,90.67
2018-04-17T08:31:01.222Z,91.14
2018-04-17T08:31:13.815Z,91.63
2018-04-17T08:31:26.474Z,92.20
2018-04-17T08:31:39.082Z,92.39
2018-04-17T08:31:51.677Z,92.77
2018-04-17T08:32:04.274Z,92.87
2018-04-17T08:32:16.896Z,92.77
2018-04-17T08:32:29.519Z,92.68
2018-04-17T08:32:42.135Z,93.16
2018-04-17T08:32:54.731Z,92.58
2018-04-17T08:33:07.335Z,92.30
2018-04-17T08:33:19.951Z,92.20
2018-04-17T08:33:32.551Z,91.91
2018-04-17T08:33:45.144Z,92.58
2018-04-17T08:33:57.748Z,92.20
2018-04-17T08:34:10.364Z,92.39
2018-04-17T08:34:23.218Z,92.49
2018-04-17T08:34:35.888Z,91.91
2018-04-17T08:34:48.552Z,92.10
2018-04-17T08:35:01.172Z,92.10
2018-04-17T08:35:13.778Z,92.10
2018-04-17T08:35:26.388Z,92.05
2018-04-17T08:35:39.038Z,91.96
2018-04-17T08:35:51.637Z,91.67
2018-04-17T08:36:04.382Z,91.19
2018-04-17T08:36:16.983Z,90.52
2018-04-17T08:36:29.596Z,89.56
2018-04-17T08:36:42.196Z,89.56
2018-04-17T08:36:54.903Z,89.85
2018-04-17T08:37:07.441Z,89.56
2018-04-17T08:37:20.110Z,89.56
2018-04-17T08:37:32.758Z,90.23
2018-04-17T08:37:45.349Z,89.75
2018-04-17T08:37:57.948Z,89.37
2018-04-17T08:38:10.547Z,88.98
2018-04-17T08:38:23.140Z,88.89
2018-04-17T08:38:35.734Z,88.60
2018-04-17T08:38:48.342Z,88.02
2018-04-17T08:39:00.943Z,87.35
2018-04-17T08:39:13.538Z,86.88
2018-04-17T08:39:26.139Z,86.78
2018-04-17T08:39:38.788Z,86.78
2018-04-17T08:39:51.389Z,86.78
2018-04-17T08:40:03.990Z,86.58
2018-04-17T08:40:16.610Z,86.74
2018-04-17T08:40:29.223Z,87.88
2018-04-17T08:40:41.849Z,87.31
2018-04-17T08:40:54.446Z,87.45
2018-04-17T08:41:07.048Z,87.70
2018-04-17T08:41:19.705Z,87.55
2018-04-17T08:41:32.338Z,87.26
2018-04-17T08:41:44.956Z,87.84
2018-04-17T08:41:57.564Z,87.35
2018-04-17T08:42:10.217Z,87.31
2018-04-17T08:42:22.807Z,87.41
2018-04-17T08:42:35.401Z,87.70
2018-04-17T08:42:48.065Z,88.08
2018-04-17T08:43:00.645Z,88.37
2018-04-17T08:43:13.333Z,88.56
2018-04-17T08:43:25.910Z,88.75
2018-04-17T08:43:38.511Z,88.56
2018-04-17T08:43:51.125Z,89.04
2018-04-17T08:44:03.728Z,88.94
2018-04-17T08:44:16.322Z,89.42
2018-04-17T08:44:28.955Z,89.61
2018-04-17T08:44:41.534Z,89.80
2018-04-17T08:44:54.135Z,91.24
2018-04-17T08:45:06.728Z,90.95
2018-04-17T08:45:19.340Z,91.82
2018-04-17T08:45:31.924Z,91.82
2018-04-17T08:45:44.527Z,92.30
2018-04-17T08:45:57.118Z,92.01
2018-04-17T08:46:09.740Z,91.91
2018-04-17T08:46:22.352Z,92.10
2018-04-17T08:46:34.954Z,92.10
2018-04-17T08:46:47.551Z,91.28
2018-04-17T08:47:00.174Z,90.71
2018-04-17T08:47:12.793Z,90.61
2018-04-17T08:47:25.453Z,90.42
2018-04-17T08:47:38.127Z,89.85
2018-04-17T08:47:50.789Z,90.04
2018-04-17T08:48:03.405Z,90.14
2018-04-17T08:48:16.004Z,90.23
2018-04-17T08:48:28.627Z,90.14
2018-04-17T08:48:41.244Z,89.75
2018-04-17T08:48:53.912Z,89.47
2018-04-17T08:49:06.471Z,89.56
2018-04-17T08:49:19.076Z,89.56
2018-04-17T08:49:31.714Z,90.23
2018-04-17T08:49:44.344Z,90.14
2018-04-17T08:49:57.006Z,89.94
2018-04-17T08:50:09.606Z,90.14
2018-04-17T08:50:22.204Z,90.14
2018-04-17T08:50:34.886Z,89.99
2018-04-17T08:50:47.521Z,89.89
2018-04-17T08:51:00.123Z,89.89
2018-04-17T08:51:12.738Z,89.89
2018-04-17T08:51:25.341Z,89.41
2018-04-17T08:51:37.956Z,88.84
2018-04-17T08:51:50.555Z,88.65
2018-04-17T08:52:03.202Z,88.17
2018-04-17T08:52:15.792Z,87.98
2018-04-17T08:52:28.386Z,87.49
2018-04-17T08:52:41.059Z,87.49
2018-04-17T08:52:53.697Z,87.88
2018-04-17T08:53:06.294Z,87.68
2018-04-17T08:53:18.912Z,88.07
2018-04-17T08:53:31.516Z,88.17
2018-04-17T08:53:44.185Z,88.35
2018-04-17T08:53:56.805Z,88.45
2018-04-17T08:54:09.479Z,87.98
2018-04-17T08:54:22.121Z,87.59
2018-04-17T08:54:34.672Z,87.78
2018-04-17T08:54:47.266Z,86.54
2018-04-17T08:54:59.867Z,86.92
2018-04-17T08:55:12.510Z,86.05
2018-04-17T08:55:25.108Z,86.05
2018-04-17T08:55:37.763Z,85.86
2018-04-17T08:55:50.353Z,86.05
2018-04-17T08:56:02.949Z,86.15
2018-04-17T08:56:15.571Z,86.25
2018-04-17T08:56:28.189Z,85.92
2018-04-17T08:56:40.787Z,85.82
2018-04-17T08:56:53.485Z,86.49
2018-04-17T08:57:06.104Z,86.97
2018-04-17T08:57:18.713Z,86.58
2018-04-17T08:57:31.357Z,86.68
2018-04-17T08:57:43.975Z,87.55
2018-04-17T08:57:56.572Z,87.64
2018-04-17T08:58:09.169Z,87.45
2018-04-17T08:58:21.766Z,87.55
2018-04-17T08:58:34.424Z,87.84
2018-04-17T08:58:47.036Z,88.02
2018-04-17T08:58:59.854Z,87.84
2018-04-17T08:59:12.503Z,87.84
2018-04-17T08:59:25.170Z,87.55
2018-04-17T08:59:37.696Z,87.45
2018-04-17T08:59:50.289Z,87.55
2018-04-17T09:00:02.895Z,88.02
2018-04-17T09:00:15.541Z,87.64
2018-04-17T09:00:28.588Z,88.02
2018-04-17T09:00:41.239Z,87.64
2018-04-17T09:00:53.821Z,87.74
2018-04-17T09:01:06.497Z,86.49
2018-04-17T09:01:19.131Z,86.68
2018-04-17T09:01:31.724Z,86.68
2018-04-17T09:01:44.356Z,86.78
2018-04-17T09:01:56.981Z,86.68
2018-04-17T09:02:09.580Z,86.49
2018-04-17T09:02:22.180Z,86.88
2018-04-17T09:02:34.811Z,86.88
2018-04-17T09:02:47.448Z,86.68
2018-04-17T09:03:00.081Z,86.97
2018-04-17T09:03:12.818Z,86.88
2018-04-17T09:03:25.396Z,86.49
2018-04-17T09:03:37.997Z,86.58
2018-04-17T09:03:50.597Z,86.83
2018-04-17T09:04:03.199Z,86.88
2018-04-17T09:04:15.791Z,86.35
2018-04-17T09:04:28.390Z,86.35
2018-04-17T09:04:41.002Z,85.97
2018-04-17T09:04:53.600Z,85.97
2018-04-17T09:05:06.192Z,86.16
2018-04-17T09:05:18.849Z,86.16
2018-04-17T09:05:31.418Z,86.16
2018-04-17T09:05:44.055Z,86.35
2018-04-17T09:05:56.660Z,86.74
2018-04-17T09:06:09.285Z,86.54
2018-04-17T09:06:21.964Z,86.83
2018-04-17T09:06:34.539Z,87.21
2018-04-17T09:06:47.137Z,87.60
2018-04-17T09:06:59.730Z,87.70
2018-04-17T09:07:12.325Z,87.88
2018-04-17T09:07:24.926Z,88.08
2018-04-17T09:07:37.554Z,88.17
2018-04-17T09:07:50.195Z,88.27
2018-04-17T09:08:02.822Z,87.98
2018-04-17T09:08:15.481Z,88.27
2018-04-17T09:08:28.121Z,87.98
2018-04-17T09:08:40.709Z,87.88
2018-04-17T09:08:53.304Z,87.50
2018-04-17T09:09:05.902Z,86.74
2018-04-17T09:09:18.530Z,86.54
2018-04-17T09:09:31.363Z,86.64
2018-04-17T09:09:44.299Z,86.25
2018-04-17T09:09:56.892Z,86.25
2018-04-17T09:10:09.521Z,86.54
2018-04-17T09:10:22.130Z,86.45
2018-04-17T09:10:34.727Z,87.41
2018-04-17T09:10:47.325Z,87.31
2018-04-17T09:10:59.946Z,87.02
2018-04-17T09:11:12.546Z,87.31
2018-04-17T09:11:25.151Z,87.21
2018-04-17T09:11:37.789Z,87.88
2018-04-17T09:11:50.649Z,87.60
2018-04-17T09:12:03.235Z,87.31
2018-04-17T09:12:15.874Z,87.41
2018-04-17T09:12:28.551Z,87.21
2018-04-17T09:12:41.162Z,86.83
2018-04-17T09:12:53.764Z,86.25
2018-04-17T09:13:06.355Z,86.35
2018-04-17T09:13:18.954Z,86.74
2018-04-17T09:13:31.575Z,86.35
2018-04-17T09:13:44.237Z,86.93
2018-04-17T09:13:56.853Z,86.45
2018-04-17T09:14:09.482Z,86.64
2018-04-17T09:14:22.126Z,86.54
2018-04-17T09:14:34.741Z,86.45
2018-04-17T09:14:47.346Z,86.64
2018-04-17T09:14:59.939Z,86.45
2018-04-17T09:15:12.541Z,86.64
2018-04-17T09:15:25.133Z,86.45
2018-04-17T09:15:37.741Z,86.35
2018-04-17T09:15:50.377Z,86.07
2018-04-17T09:16:02.994Z,85.68
2018-04-17T09:16:15.591Z,85.78
2018-04-17T09:16:28.211Z,85.97
2018-04-17T09:16:40.826Z,85.88
2018-04-17T09:16:53.429Z,85.58
2018-04-17T09:17:06.079Z,85.83
2018-04-17T09:17:18.626Z,85.58
2018-04-17T09:17:31.216Z,85.78
2018-04-17T09:17:43.816Z,85.78
2018-04-17T09:17:56.448Z,86.35
2018-04-17T09:18:09.034Z,86.45
2018-04-17T09:18:21.632Z,86.35
2018-04-17T09:18:34.228Z,87.37
2018-04-17T09:18:46.854Z,87.17
2018-04-17T09:18:59.439Z,87.55
2018-04-17T09:19:12.039Z,88.27
2018-04-17T09:19:24.656Z,87.79
2018-04-17T09:19:37.304Z,88.75
2018-04-17T09:19:49.895Z,88.56
2018-04-17T09:20:02.493Z,88.94
2018-04-17T09:20:15.086Z,89.13
2018-04-17T09:20:27.701Z,89.13
2018-04-17T09:20:40.297Z,89.42
2018-04-17T09:20:52.891Z,89.61
2018-04-17T09:21:05.506Z,89.42
2018-04-17T09:21:18.100Z,89.23
2018-04-17T09:21:30.701Z,89.13
2018-04-17T09:21:43.315Z,88.37
2018-04-17T09:21:55.909Z,88.17
2018-04-17T09:22:08.526Z,88.46
2018-04-17T09:22:21.106Z,87.88
2018-04-17T09:22:33.728Z,87.60
2018-04-17T09:22:46.325Z,87.31
2018-04-17T09:22:58.919Z,86.25
2018-04-17T09:23:11.510Z,86.35
2018-04-17T09:23:24.116Z,86.74
2018-04-17T09:23:36.732Z,86.83
2018-04-17T09:23:49.356Z,86.35
2018-04-17T09:24:02.027Z,86.50
2018-04-17T09:24:14.559Z,86.83
2018-04-17T09:24:27.157Z,87.46
2018-04-17T09:24:39.752Z,87.17
2018-04-17T09:24:52.342Z,87.74
2018-04-17T09:25:04.962Z,87.94
2018-04-17T09:25:17.575Z,87.84
2018-04-17T09:25:30.168Z,88.51
2018-04-17T09:25:42.768Z,88.90
2018-04-17T09:25:55.384Z,88.90
2018-04-17T09:26:08.006Z,88.70
2018-04-17T09:26:20.599Z,89.09
2018-04-17T09:26:33.194Z,89.57
2018-04-17T09:26:45.789Z,89.09
2018-04-17T09:26:58.392Z,89.09
2018-04-17T09:27:11.006Z,89.37
2018-04-17T09:27:23.593Z,89.76
2018-04-17T09:27:36.211Z,89.28
2018-04-17T09:27:48.787Z,89.28
2018-04-17T09:28:01.383Z,89.86
2018-04-17T09:28:13.997Z,89.76
2018-04-17T09:28:26.599Z,89.47
2018-04-17T09:28:39.215Z,90.23
2018-04-17T09:28:51.800Z,90.33
2018-04-17T09:29:04.394Z,90.53
2018-04-17T09:29:16.999Z,90.33
2018-04-17T09:29:29.608Z,90.43
2018-04-17T09:29:42.209Z,90.53
2018-04-17T09:29:54.821Z,90.43
2018-04-17T09:30:07.428Z,90.14
2018-04-17T09:30:20.040Z,90.43
2018-04-17T09:30:32.634Z,90.33
2018-04-17T09:30:45.237Z,90.53
2018-04-17T09:30:57.843Z,90.53
2018-04-17T09:31:10.443Z,90.14
2018-04-17T09:31:23.062Z,90.23
2018-04-17T09:31:35.680Z,90.23
2018-04-17T09:31:48.276Z,90.53
2018-04-17T09:32:00.915Z,90.43
2018-04-17T09:32:13.483Z,90.81
2018-04-17T09:32:26.081Z,90.43
2018-04-17T09:32:38.674Z,90.72
2018-04-17T09:32:51.274Z,90.53
2018-04-17T09:33:03.865Z,90.76
2018-04-17T09:33:16.580Z,90.67
2018-04-17T09:33:29.109Z,90.67
2018-04-17T09:33:41.724Z,90.38
2018-04-17T09:33:54.323Z,90.57
2018-04-17T09:34:06.917Z,90.38
2018-04-17T09:34:19.519Z,90.38
2018-04-17T09:34:32.186Z,89.51
2018-04-17T09:34:44.710Z,89.23
2018-04-17T09:34:57.310Z,88.37
2018-04-17T09:35:09.931Z,87.31
2018-04-17T09:35:22.525Z,86.16
2018-04-17T09:35:35.123Z,85.78
2018-04-17T09:35:47.742Z,85.88
2018-04-17T09:36:00.396Z,85.78
2018-04-17T09:36:12.950Z,86.07
2018-04-17T09:36:25.550Z,86.07
2018-04-17T09:36:38.142Z,86.64
2018-04-17T09:36:50.740Z,86.54
2018-04-17T09:37:03.361Z,87.02
2018-04-17T09:37:15.959Z,87.21
2018-04-17T09:37:28.553Z,86.93
2018-04-17T09:37:41.153Z,86.45
2018-04-17T09:37:53.768Z,85.58
2018-04-17T09:38:06.418Z,85.68
2018-04-17T09:38:19.021Z,85.01
2018-04-17T09:38:31.610Z,85.97
2018-04-17T09:38:44.204Z,85.97
2018-04-17T09:38:56.800Z,85.78
2018-04-17T09:39:09.393Z,85.68
2018-04-17T09:39:21.994Z,86.07
2018-04-17T09:39:34.593Z,86.64
2018-04-17T09:39:47.214Z,87.41
2018-04-17T09:39:59.825Z,87.31
2018-04-17T09:40:12.421Z,87.12
2018-04-17T09:40:25.022Z,87.79
2018-04-17T09:40:37.614Z,87.70
2018-04-17T09:40:50.229Z,88.17
2018-04-17T09:41:02.830Z,88.27
2018-04-17T09:41:15.426Z,87.98
2018-04-17T09:41:28.020Z,88.56
2018-04-17T09:41:40.611Z,88.56
2018-04-17T09:41:53.211Z,88.56
2018-04-17T09:42:05.827Z,88.27
2018-04-17T09:42:18.426Z,87.88
2018-04-17T09:42:31.039Z,87.50
2018-04-17T09:42:43.614Z,87.21
2018-04-17T09:42:56.210Z,86.74
2018-04-17T09:43:08.808Z,86.35
2018-04-17T09:43:21.453Z,86.64
2018-04-17T09:43:34.048Z,86.74
2018-04-17T09:43:46.649Z,86.74
2018-04-17T09:43:59.268Z,86.83
2018-04-17T09:44:11.883Z,86.45
2018-04-17T09:44:24.478Z,86.64
2018-04-17T09:44:37.084Z,86.64
2018-04-17T09:44:49.680Z,86.83
2018-04-17T09:45:02.293Z,87.50
2018-04-17T09:45:14.892Z,87.31
2018-04-17T09:45:27.509Z,87.41
2018-04-17T09:45:40.107Z,87.50
2018-04-17T09:45:52.708Z,87.50
2018-04-17T09:46:05.324Z,87.79
2018-04-17T09:46:17.952Z,87.79
2018-04-17T09:46:30.568Z,87.98
2018-04-17T09:46:43.162Z,88.46
2018-04-17T09:46:55.760Z,88.08
2018-04-17T09:47:08.355Z,88.37
2018-04-17T09:47:20.956Z,88.56
2018-04-17T09:47:33.570Z,88.46
2018-04-17T09:47:46.164Z,88.17
2018-04-17T09:47:58.807Z,88.08
2018-04-17T09:48:11.430Z,88.17
2018-04-17T09:48:24.083Z,87.88
2018-04-17T09:48:36.652Z,88.17
2018-04-17T09:48:49.230Z,88.17
2018-04-17T09:49:01.840Z,88.37
2018-04-17T09:49:14.491Z,88.84
2018-04-17T09:49:27.142Z,88.94
2018-04-17T09:49:39.857Z,88.94
2018-04-17T09:49:52.473Z,89.23
2018-04-17T09:50:05.085Z,89.51
2018-04-17T09:50:17.692Z,89.13
2018-04-17T09:50:30.331Z,89.42
2018-04-17T09:50:42.936Z,88.94
2018-04-17T09:50:55.555Z,88.70
2018-04-17T09:51:08.192Z,88.37
2018-04-17T09:51:20.780Z,87.84
2018-04-17T09:51:33.374Z,86.64
2018-04-17T09:51:45.979Z,86.45
2018-04-17T09:51:58.623Z,85.97
2018-04-17T09:52:11.263Z,85.58
2018-04-17T09:52:23.864Z,85.68
2018-04-17T09:52:36.470Z,85.39
2018-04-17T09:52:49.106Z,85.30
2018-04-17T09:53:01.754Z,84.82
2018-04-17T09:53:14.383Z,84.34
2018-04-17T09:53:26.969Z,84.25
2018-04-17T09:53:39.589Z,84.53
2018-04-17T09:53:52.188Z,83.86
2018-04-17T09:54:04.813Z,84.05
2018-04-17T09:54:17.435Z,84.63
2018-04-17T09:54:30.068Z,84.34
2018-04-17T09:54:42.707Z,84.53
2018-04-17T09:54:55.332Z,84.91
2018-04-17T09:55:08.012Z,85.21
2018-04-17T09:55:20.840Z,85.39
2018-04-17T09:55:33.436Z,85.39
2018-04-17T09:55:46.088Z,85.39
2018-04-17T09:55:58.783Z,85.01
2018-04-17T09:56:11.357Z,85.11
2018-04-17T09:56:24.011Z,85.21
2018-04-17T09:56:36.687Z,84.63
2018-04-17T09:56:49.325Z,83.95
2018-04-17T09:57:02.006Z,84.15
2018-04-17T09:57:14.651Z,83.86
2018-04-17T09:57:27.322Z,83.86
2018-04-17T09:57:39.941Z,84.53
2018-04-17T09:57:52.534Z,84.53
2018-04-17T09:58:05.121Z,85.21
2018-04-17T09:58:17.785Z,85.88
2018-04-17T09:58:30.407Z,85.97
2018-04-17T09:58:43.056Z,85.97
2018-04-17T09:58:55.699Z,85.78
2018-04-17T09:59:08.299Z,85.01
2018-04-17T09:59:21.071Z,85.39
2018-04-17T09:59:33.772Z,84.72
2018-04-17T09:59:46.473Z,84.72
2018-04-17T09:59:59.135Z,84.82
2018-04-17T10:00:11.754Z,84.91
2018-04-17T10:00:24.694Z,84.34
2018-04-17T10:00:37.362Z,84.44
2018-04-17T10:00:49.997Z,84.34
2018-04-17T10:01:02.650Z,84.34
2018-04-17T10:01:15.253Z,84.15
2018-04-17T10:01:27.893Z,83.86
2018-04-17T10:01:40.551Z,84.05
2018-04-17T10:01:53.368Z,84.53
2018-04-17T10:02:05.996Z,84.25
2018-04-17T10:02:18.600Z,84.34
2018-04-17T10:02:31.194Z,84.34
2018-04-17T10:02:44.010Z,84.34
2018-04-17T10:02:56.611Z,84.25
2018-04-17T10:03:09.212Z,84.91
2018-04-17T10:03:21.819Z,84.82
2018-04-17T10:03:34.455Z,85.39
2018-04-17T10:03:47.009Z,85.21
2018-04-17T10:03:59.601Z,85.21
2018-04-17T10:04:24.957Z,84.44
2018-04-17T10:04:37.578Z,84.34
2018-04-17T10:04:50.377Z,83.86
2018-04-17T10:05:03.196Z,83.95
2018-04-17T10:05:15.792Z,83.58
2018-04-17T10:05:28.388Z,83.67
2018-04-17T10:05:40.984Z,83.58
2018-04-17T10:05:53.581Z,83.86
2018-04-17T10:06:06.184Z,84.34
2018-04-17T10:06:18.776Z,84.44
2018-04-17T10:06:31.597Z,84.53
2018-04-17T10:06:44.220Z,84.82
2018-04-17T10:06:56.815Z,84.44
2018-04-17T10:07:09.413Z,84.34
2018-04-17T10:07:22.030Z,84.25
2018-04-17T10:07:34.630Z,84.44
2018-04-17T10:07:47.225Z,83.58
2018-04-17T10:07:59.825Z,83.71
2018-04-17T10:08:12.422Z,83.42
2018-04-17T10:08:25.022Z,83.33
2018-04-17T10:08:37.621Z,83.52
2018-04-17T10:08:50.299Z,83.33
2018-04-17T10:09:02.935Z,83.48
2018-04-17T10:09:15.463Z,83.52
2018-04-17T10:09:28.071Z,83.52
2018-04-17T10:09:40.662Z,83.19
2018-04-17T10:09:53.263Z,83.42
2018-04-17T10:10:05.859Z,83.29
2018-04-17T10:10:18.457Z,83.86
2018-04-17T10:10:31.068Z,83.86
2018-04-17T10:10:43.671Z,84.34
2018-04-17T10:10:56.323Z,84.25
2018-04-17T10:11:08.916Z,84.63
2018-04-17T10:11:21.507Z,84.91
2018-04-17T10:11:34.100Z,84.95
2018-04-17T10:11:46.694Z,84.91
2018-04-17T10:11:59.295Z,84.25
2018-04-17T10:12:11.915Z,84.15
2018-04-17T10:12:24.509Z,83.67
2018-04-17T10:12:37.106Z,83.95
2018-04-17T10:12:49.709Z,83.95
2018-04-17T10:13:02.318Z,83.86
2018-04-17T10:13:14.919Z,83.48
2018-04-17T10:13:27.520Z,83.67
2018-04-17T10:13:40.139Z,83.76
2018-04-17T10:13:52.730Z,83.86
2018-04-17T10:14:05.332Z,83.76
2018-04-17T10:14:17.946Z,84.44
2018-04-17T10:14:30.548Z,84.44
2018-04-17T10:14:43.164Z,83.95
2018-04-17T10:14:55.763Z,84.28
2018-04-17T10:15:08.376Z,83.81
2018-04-17T10:15:20.969Z,83.48
2018-04-17T10:15:33.568Z,83.48
2018-04-17T10:15:46.187Z,83.38
2018-04-17T10:15:58.780Z,83.48
2018-04-17T10:16:11.378Z,83.76
2018-04-17T10:16:23.977Z,83.09
2018-04-17T10:16:36.570Z,83.58
2018-04-17T10:16:49.167Z,83.81
2018-04-17T10:17:01.760Z,83.23
2018-04-17T10:17:14.371Z,82.94
2018-04-17T10:17:27.000Z,82.85
2018-04-17T10:17:39.568Z,82.46
2018-04-17T10:17:52.176Z,82.23
2018-04-17T10:18:04.778Z,82.14
2018-04-17T10:18:17.393Z,82.14
2018-04-17T10:18:30.016Z,82.52
2018-04-17T10:18:42.643Z,81.95
2018-04-17T10:18:55.226Z,82.14
2018-04-17T10:19:07.828Z,82.14
2018-04-17T10:19:20.440Z,82.04
2018-04-17T10:19:33.037Z,82.32
2018-04-17T10:19:45.643Z,81.95
2018-04-17T10:19:58.227Z,82.32
2018-04-17T10:20:10.830Z,82.32
2018-04-17T10:20:23.420Z,82.71
2018-04-17T10:20:36.020Z,82.71
2018-04-17T10:20:48.610Z,82.81
2018-04-17T10:21:01.204Z,82.81
2018-04-17T10:21:13.804Z,82.52
2018-04-17T10:21:26.397Z,82.90
2018-04-17T10:21:38.997Z,82.71
2018-04-17T10:21:51.589Z,83.00
2018-04-17T10:22:04.206Z,83.00
2018-04-17T10:22:16.825Z,82.62
2018-04-17T10:22:29.471Z,82.42
2018-04-17T10:22:42.028Z,81.95
2018-04-17T10:22:54.648Z,82.62
2018-04-17T10:23:07.236Z,82.52
2018-04-17T10:23:19.841Z,82.04
2018-04-17T10:23:32.519Z,82.32
2018-04-17T10:23:45.132Z,82.14
2018-04-17T10:23:57.748Z,82.62
2018-04-17T10:24:10.344Z,82.90
2018-04-17T10:24:22.937Z,83.00
2018-04-17T10:24:35.534Z,83.29
2018-04-17T10:24:48.131Z,83.48
2018-04-17T10:25:00.727Z,83.33
2018-04-17T10:25:13.315Z,83.48
2018-04-17T10:25:25.912Z,83.48
2018-04-17T10:25:38.505Z,83.19
2018-04-17T10:25:51.096Z,83.38
2018-04-17T10:26:03.697Z,83.38
2018-04-17T10:26:16.308Z,83.52
2018-04-17T10:26:28.909Z,83.71
2018-04-17T10:26:41.521Z,83.76
2018-04-17T10:26:54.119Z,83.71
2018-04-17T10:27:06.733Z,83.23
2018-04-17T10:27:19.331Z,83.67
2018-04-17T10:27:31.948Z,83.38
2018-04-17T10:27:44.566Z,83.52
2018-04-17T10:27:57.162Z,83.00
2018-04-17T10:28:09.760Z,82.81
2018-04-17T10:28:22.403Z,82.62
2018-04-17T10:28:35.000Z,82.52
2018-04-17T10:28:47.595Z,82.62
2018-04-17T10:29:00.190Z,82.81
2018-04-17T10:29:12.788Z,82.32
2018-04-17T10:29:25.383Z,81.95
2018-04-17T10:29:38.005Z,82.23
2018-04-17T10:29:50.642Z,82.14
2018-04-17T10:30:03.212Z,81.85
2018-04-17T10:30:15.810Z,82.23
2018-04-17T10:30:28.407Z,82.14